createdAt,value
2023-05-24T00:02:08.808Z,13.21
2023-05-24T00:04:35.458Z,13.18
2023-05-24T00:07:03.640Z,13.12
2023-05-24T00:09:30.885Z,13.16
2023-05-24T00:11:57.666Z,13.14
2023-05-24T00:14:24.784Z,13.19
2023-05-24T00:16:51.504Z,13.19
2023-05-24T00:19:18.831Z,13.19
2023-05-24T00:21:46.087Z,13.24
2023-05-24T00:24:12.871Z,13.19
2023-05-24T00:26:39.650Z,13.25
2023-05-24T00:29:06.694Z,13.24
2023-05-24T00:31:33.521Z,13.28
2023-05-24T00:34:00.314Z,13.28
2023-05-24T00:36:26.936Z,13.29
2023-05-24T00:38:53.768Z,13.25
2023-05-24T00:41:20.476Z,13.22
2023-05-24T00:43:46.999Z,13.23
2023-05-24T00:46:20.561Z,13.20
2023-05-24T00:48:49.574Z,13.24
2023-05-24T00:51:17.499Z,13.23
2023-05-24T00:53:46.975Z,13.24
2023-05-24T00:56:14.682Z,13.20
2023-05-24T00:58:42.302Z,13.31
2023-05-24T01:01:10.413Z,13.41
2023-05-24T01:03:37.224Z,13.29
2023-05-24T01:06:07.283Z,13.18
2023-05-24T01:08:42.849Z,13.21
2023-05-24T01:11:20.303Z,13.24
2023-05-24T01:13:57.988Z,13.24
2023-05-24T01:16:29.856Z,13.24
2023-05-24T01:19:00.383Z,13.15
2023-05-24T01:21:56.295Z,13.19
2023-05-24T01:24:53.800Z,13.23
2023-05-24T01:27:22.791Z,13.22
2023-05-24T01:29:53.524Z,13.23
2023-05-24T01:32:20.794Z,13.07
2023-05-24T01:34:47.582Z,13.10
2023-05-24T01:37:16.098Z,13.13
2023-05-24T01:39:43.018Z,13.24
2023-05-24T01:42:27.299Z,13.19
2023-05-24T01:45:11.034Z,13.16
2023-05-24T01:48:03.136Z,13.10
2023-05-24T01:50:37.135Z,13.14
2023-05-24T01:53:08.311Z,13.09
2023-05-24T01:55:36.764Z,13.19
2023-05-24T01:58:05.028Z,13.13
2023-05-24T02:00:32.913Z,13.07
2023-05-24T02:02:59.806Z,13.09
2023-05-24T02:05:26.637Z,13.05
2023-05-24T02:07:53.249Z,12.93
2023-05-24T02:10:19.795Z,13.01
2023-05-24T02:12:46.352Z,12.99
2023-05-24T02:15:14.840Z,12.98
2023-05-24T02:17:43.295Z,13.00
2023-05-24T02:20:10.900Z,13.00
2023-05-24T02:22:38.411Z,12.97
2023-05-24T02:25:05.457Z,13.05
2023-05-24T02:27:32.034Z,12.97
2023-05-24T02:29:58.578Z,12.94
2023-05-24T02:32:25.160Z,12.89
2023-05-24T02:34:51.823Z,12.91
2023-05-24T02:37:18.689Z,12.88
2023-05-24T02:39:45.335Z,12.89
2023-05-24T02:42:11.837Z,12.96
2023-05-24T02:44:38.477Z,12.94
2023-05-24T02:47:05.669Z,12.99
2023-05-24T02:49:32.292Z,12.94
2023-05-24T02:51:59.225Z,12.96
2023-05-24T02:54:25.761Z,12.94
2023-05-24T02:56:53.332Z,12.87
2023-05-24T02:59:19.854Z,12.85
2023-05-24T03:01:47.152Z,12.86
2023-05-24T03:04:13.726Z,12.85
2023-05-24T03:06:40.931Z,12.92
2023-05-24T03:09:08.178Z,12.81
2023-05-24T03:11:34.713Z,12.80
2023-05-24T03:14:01.230Z,12.84
2023-05-24T03:16:29.407Z,12.88
2023-05-24T03:18:56.500Z,12.84
2023-05-24T03:21:23.538Z,12.75
2023-05-24T03:23:50.226Z,12.73
2023-05-24T03:26:18.955Z,12.67
2023-05-24T03:28:45.581Z,12.72
2023-05-24T03:31:12.606Z,12.65
2023-05-24T03:33:39.628Z,12.66
2023-05-24T03:36:06.796Z,12.63
2023-05-24T03:38:33.828Z,12.64
2023-05-24T03:41:00.730Z,12.64
2023-05-24T03:43:28.638Z,12.64
2023-05-24T03:45:57.452Z,12.60
2023-05-24T03:48:24.541Z,12.60
2023-05-24T03:50:51.970Z,12.58
2023-05-24T03:53:18.898Z,12.63
2023-05-24T03:55:46.684Z,12.60
2023-05-24T03:58:13.492Z,12.59
2023-05-24T04:00:40.260Z,12.57
2023-05-24T04:03:06.936Z,12.55
2023-05-24T04:05:33.935Z,12.47
2023-05-24T04:08:00.642Z,12.40
2023-05-24T04:10:28.498Z,12.39
2023-05-24T04:12:57.227Z,12.40
2023-05-24T04:15:24.217Z,12.34
2023-05-24T04:17:55.120Z,12.33
2023-05-24T04:20:27.136Z,12.27
2023-05-24T04:22:54.369Z,12.31
2023-05-24T04:25:21.046Z,12.27
2023-05-24T04:27:50.867Z,12.21
2023-05-24T04:30:17.658Z,12.12
2023-05-24T04:32:47.412Z,12.11
2023-05-24T04:35:15.568Z,12.09
2023-05-24T04:37:42.155Z,12.02
2023-05-24T04:40:09.350Z,12.05
2023-05-24T04:42:36.323Z,12.08
2023-05-24T04:45:03.068Z,12.12
2023-05-24T04:47:29.885Z,12.16
2023-05-24T04:49:56.411Z,12.10
2023-05-24T04:52:22.973Z,12.19
2023-05-24T04:54:49.960Z,12.24
2023-05-24T04:57:17.180Z,12.13
2023-05-24T04:59:44.120Z,12.17
2023-05-24T05:02:10.717Z,12.23
2023-05-24T05:04:37.248Z,12.20
2023-05-24T05:07:03.946Z,12.16
2023-05-24T05:09:30.495Z,12.14
2023-05-24T05:11:57.155Z,12.11
2023-05-24T05:14:23.704Z,12.09
2023-05-24T05:16:50.631Z,12.11
2023-05-24T05:19:17.220Z,12.03
2023-05-24T05:21:43.757Z,12.03
2023-05-24T05:24:10.309Z,12.03
2023-05-24T05:26:36.815Z,12.06
2023-05-24T05:29:03.867Z,12.11
2023-05-24T05:31:30.965Z,12.16
2023-05-24T05:33:57.584Z,12.04
2023-05-24T05:36:24.380Z,12.09
2023-05-24T05:38:51.051Z,11.97
2023-05-24T05:41:17.708Z,12.05
2023-05-24T05:43:44.239Z,12.03
2023-05-24T05:46:11.505Z,11.93
2023-05-24T05:48:38.116Z,11.96
2023-05-24T05:51:04.618Z,12.01
2023-05-24T05:53:33.951Z,11.95
2023-05-24T05:56:00.482Z,11.99
2023-05-24T05:58:27.023Z,11.94
2023-05-24T06:00:53.551Z,11.95
2023-05-24T06:03:20.269Z,11.96
2023-05-24T06:05:46.974Z,12.13
2023-05-24T06:08:13.499Z,12.12
2023-05-24T06:10:40.238Z,12.16
2023-05-24T06:13:06.939Z,12.23
2023-05-24T06:15:34.492Z,12.31
2023-05-24T06:18:02.297Z,12.36
2023-05-24T06:20:29.323Z,12.35
2023-05-24T06:22:57.141Z,12.36
2023-05-24T06:25:24.432Z,12.38
2023-05-24T06:27:51.757Z,12.42
2023-05-24T06:30:18.623Z,12.48
2023-05-24T06:32:45.416Z,12.52
2023-05-24T06:35:11.947Z,12.57
2023-05-24T06:37:38.662Z,12.50
2023-05-24T06:40:11.823Z,12.48
2023-05-24T06:42:39.328Z,12.48
2023-05-24T06:45:06.548Z,12.56
2023-05-24T06:47:33.259Z,12.54
2023-05-24T06:50:00.924Z,12.61
2023-05-24T06:52:27.476Z,12.63
2023-05-24T06:54:54.409Z,12.74
2023-05-24T06:57:21.498Z,12.64
2023-05-24T06:59:48.028Z,12.69
2023-05-24T07:02:14.652Z,12.87
2023-05-24T07:04:41.317Z,12.86
2023-05-24T07:07:09.116Z,12.84
2023-05-24T07:09:35.834Z,12.88
2023-05-24T07:12:02.689Z,12.97
2023-05-24T07:14:29.362Z,13.01
2023-05-24T07:16:57.572Z,13.06
2023-05-24T07:19:28.978Z,13.12
2023-05-24T07:21:58.753Z,13.10
2023-05-24T07:24:25.659Z,13.22
2023-05-24T07:26:53.624Z,13.43
2023-05-24T07:29:21.808Z,13.37
2023-05-24T07:31:48.852Z,13.36
2023-05-24T07:34:16.213Z,13.36
2023-05-24T07:36:42.723Z,13.32
2023-05-24T07:39:15.664Z,13.31
2023-05-24T07:41:42.329Z,13.32
2023-05-24T07:44:08.855Z,13.34
2023-05-24T07:46:35.424Z,13.31
2023-05-24T07:49:01.988Z,13.45
2023-05-24T07:51:28.501Z,13.54
2023-05-24T07:53:55.272Z,13.54
2023-05-24T07:56:21.808Z,13.48
2023-05-24T07:58:49.221Z,13.50
2023-05-24T08:01:16.024Z,13.58
2023-05-24T08:03:42.710Z,13.57
2023-05-24T08:06:10.070Z,13.53
2023-05-24T08:08:36.629Z,13.53
2023-05-24T08:11:03.175Z,13.57
2023-05-24T08:13:29.736Z,13.57
2023-05-24T08:15:56.520Z,13.59
2023-05-24T08:18:23.072Z,13.60
2023-05-24T08:20:49.722Z,13.63
2023-05-24T08:23:16.300Z,13.73
2023-05-24T08:25:43.023Z,13.70
2023-05-24T08:28:11.042Z,13.71
2023-05-24T08:30:38.142Z,13.69
2023-05-24T08:33:04.777Z,13.73
2023-05-24T08:35:31.461Z,13.70
2023-05-24T08:37:58.000Z,13.56
2023-05-24T08:40:25.064Z,13.55
2023-05-24T08:42:52.868Z,13.48
2023-05-24T08:45:22.052Z,13.42
2023-05-24T08:47:50.405Z,13.36
2023-05-24T08:50:17.904Z,13.33
2023-05-24T08:52:46.102Z,13.25
2023-05-24T08:55:13.150Z,13.27
2023-05-24T08:57:41.153Z,13.13
2023-05-24T09:00:11.443Z,13.12
2023-05-24T09:02:39.541Z,13.04
2023-05-24T09:05:10.816Z,13.23
2023-05-24T09:07:37.795Z,13.29
2023-05-24T09:10:06.122Z,13.31
2023-05-24T09:12:38.039Z,13.32
2023-05-24T09:15:07.374Z,13.49
2023-05-24T09:17:38.162Z,13.54
2023-05-24T09:20:10.135Z,13.58
2023-05-24T09:22:40.889Z,13.51
2023-05-24T09:25:09.720Z,13.56
2023-05-24T09:27:36.811Z,13.61
2023-05-24T09:30:06.598Z,13.70
2023-05-24T09:32:33.237Z,13.73
2023-05-24T09:35:00.133Z,13.73
2023-05-24T09:37:32.272Z,13.67
2023-05-24T09:40:00.268Z,13.60
2023-05-24T09:42:28.636Z,13.61
2023-05-24T09:45:05.089Z,13.55
2023-05-24T09:47:33.427Z,13.48
2023-05-24T09:50:01.470Z,13.34
2023-05-24T09:52:28.274Z,13.41
2023-05-24T09:54:55.156Z,13.39
2023-05-24T09:57:25.871Z,13.34
2023-05-24T09:59:52.572Z,13.24
2023-05-24T10:02:22.996Z,13.46
2023-05-24T10:04:59.464Z,13.39
2023-05-24T10:07:26.726Z,13.32
2023-05-24T10:09:53.784Z,13.33
2023-05-24T10:12:23.202Z,13.35
2023-05-24T10:14:51.862Z,13.35
2023-05-24T10:17:18.462Z,13.27
2023-05-24T10:19:45.095Z,13.23
2023-05-24T10:22:14.134Z,13.28
2023-05-24T10:24:46.509Z,13.33
2023-05-24T10:27:18.363Z,13.28
2023-05-24T10:30:29.377Z,13.28
2023-05-24T10:32:57.421Z,13.28
2023-05-24T10:35:25.392Z,13.34
2023-05-24T10:37:52.401Z,13.32
2023-05-24T10:40:26.896Z,13.32
2023-05-24T10:42:56.803Z,13.30
2023-05-24T10:45:23.281Z,13.34
2023-05-24T10:47:49.941Z,13.35
2023-05-24T10:50:21.311Z,13.34
2023-05-24T10:52:50.948Z,13.38
2023-05-24T10:55:19.867Z,13.44
2023-05-24T10:57:46.542Z,13.44
2023-05-24T11:00:34.724Z,13.43
2023-05-24T11:03:07.089Z,13.38
2023-05-24T11:05:55.106Z,13.42
2023-05-24T11:08:35.595Z,13.33
2023-05-24T11:13:44.031Z,13.38
2023-05-24T11:16:37.553Z,13.44
2023-05-24T11:19:17.995Z,13.50
2023-05-24T11:21:50.218Z,13.67
2023-05-24T11:24:18.687Z,13.62
2023-05-24T11:26:45.929Z,13.58
2023-05-24T11:29:22.170Z,13.64
2023-05-24T11:31:54.078Z,13.65
2023-05-24T11:34:21.593Z,13.67
2023-05-24T11:36:50.259Z,13.66
2023-05-24T11:39:16.946Z,13.73
2023-05-24T11:41:43.850Z,13.77
2023-05-24T11:44:12.282Z,13.77
2023-05-24T11:46:40.490Z,13.72
2023-05-24T11:49:07.292Z,13.79
2023-05-24T11:51:35.779Z,13.75
2023-05-24T11:54:02.418Z,13.76
2023-05-24T11:56:33.618Z,13.77
2023-05-24T11:59:25.924Z,13.87
2023-05-24T12:02:05.548Z,13.85
2023-05-24T12:04:34.570Z,13.84
2023-05-24T12:07:01.821Z,13.90
2023-05-24T12:09:28.745Z,13.82
2023-05-24T12:11:55.665Z,13.74
2023-05-24T12:14:34.597Z,13.73
2023-05-24T12:17:01.628Z,13.74
2023-05-24T12:19:36.422Z,13.74
2023-05-24T12:22:09.114Z,13.78
2023-05-24T12:24:37.324Z,13.73
2023-05-24T12:27:08.788Z,13.79
2023-05-24T12:29:37.588Z,13.81
2023-05-24T12:32:04.647Z,13.83
2023-05-24T12:34:31.270Z,13.78
2023-05-24T12:36:57.945Z,13.86
2023-05-24T12:39:31.931Z,13.87
2023-05-24T12:42:00.997Z,13.83
2023-05-24T12:44:28.511Z,13.75
2023-05-24T12:46:57.128Z,13.78
2023-05-24T12:49:24.439Z,13.66
2023-05-24T12:51:51.929Z,13.67
2023-05-24T12:54:20.183Z,13.58
2023-05-24T12:56:47.384Z,13.58
2023-05-24T12:59:14.090Z,13.56
2023-05-24T13:01:41.089Z,13.57
2023-05-24T13:04:10.893Z,13.58
2023-05-24T13:06:38.160Z,13.60
2023-05-24T13:09:06.413Z,13.65
2023-05-24T13:11:33.124Z,13.74
2023-05-24T13:13:59.781Z,13.85
2023-05-24T13:16:26.662Z,13.81
2023-05-24T13:18:53.323Z,13.86
2023-05-24T13:21:20.488Z,13.94
2023-05-24T13:23:47.067Z,14.04
2023-05-24T13:26:14.399Z,14.01
2023-05-24T13:28:49.267Z,14.05
2023-05-24T13:31:25.540Z,13.99
2023-05-24T13:33:52.100Z,13.98
2023-05-24T13:36:19.080Z,13.95
2023-05-24T13:38:45.629Z,13.96
2023-05-24T13:41:12.523Z,14.00
2023-05-24T13:43:39.261Z,14.02
2023-05-24T13:46:05.880Z,14.04
2023-05-24T13:48:32.728Z,14.11
2023-05-24T13:50:59.327Z,14.12
2023-05-24T13:53:27.635Z,14.15
2023-05-24T13:55:54.646Z,14.17
2023-05-24T13:58:21.409Z,14.15
2023-05-24T14:00:47.971Z,14.18
2023-05-24T14:03:15.968Z,14.18
2023-05-24T14:05:43.129Z,14.20
2023-05-24T14:08:10.102Z,14.26
2023-05-24T14:10:37.346Z,14.26
2023-05-24T14:13:28.879Z,14.31
2023-05-24T14:15:52.832Z,14.36
2023-05-24T14:18:19.433Z,14.32
2023-05-24T14:20:46.012Z,14.28
2023-05-24T14:23:12.865Z,14.39
2023-05-24T14:25:39.525Z,14.37
2023-05-24T14:28:08.400Z,14.47
2023-05-24T14:30:37.631Z,14.53
2023-05-24T14:33:08.709Z,14.57
2023-05-24T14:35:38.303Z,14.51
2023-05-24T14:38:09.461Z,14.46
2023-05-24T14:40:37.716Z,14.54
2023-05-24T14:43:04.878Z,14.57
2023-05-24T14:45:31.538Z,14.67
2023-05-24T14:47:58.198Z,14.70
2023-05-24T14:50:24.822Z,14.81
2023-05-24T14:52:53.162Z,14.81
2023-05-24T14:55:22.050Z,14.77
2023-05-24T14:57:49.445Z,14.75
2023-05-24T15:00:18.539Z,14.83
2023-05-24T15:02:46.620Z,14.89
2023-05-24T15:05:13.214Z,14.90
2023-05-24T15:07:39.741Z,15.05
2023-05-24T15:10:06.781Z,15.06
2023-05-24T15:12:33.572Z,15.10
2023-05-24T15:15:00.236Z,15.06
2023-05-24T15:17:27.375Z,15.06
2023-05-24T15:19:56.647Z,15.22
2023-05-24T15:22:23.499Z,15.29
2023-05-24T15:24:50.429Z,15.35
2023-05-24T15:27:17.311Z,15.27
2023-05-24T15:29:43.879Z,15.25
2023-05-24T15:32:11.630Z,15.26
2023-05-24T15:34:38.486Z,15.22
2023-05-24T15:37:05.288Z,15.20
2023-05-24T15:39:32.053Z,15.36
2023-05-24T15:41:59.162Z,15.46
2023-05-24T15:44:25.795Z,15.39
2023-05-24T15:46:52.551Z,15.34
2023-05-24T15:49:19.150Z,15.31
2023-05-24T15:54:15.220Z,15.25
2023-05-24T15:56:42.860Z,15.30
2023-05-24T15:59:09.420Z,15.28
2023-05-24T16:01:37.003Z,15.32
2023-05-24T16:04:03.608Z,15.26
2023-05-24T16:06:30.199Z,15.28
2023-05-24T16:08:56.816Z,15.52
2023-05-24T16:11:23.648Z,15.44
2023-05-24T16:13:50.465Z,15.27
2023-05-24T16:16:17.195Z,15.23
2023-05-24T16:18:43.728Z,15.20
2023-05-24T16:21:10.550Z,15.21
2023-05-24T16:23:38.559Z,15.22
2023-05-24T16:26:05.305Z,15.26
2023-05-24T16:28:31.968Z,15.30
2023-05-24T16:31:00.214Z,15.17
2023-05-24T16:33:26.737Z,15.26
2023-05-24T16:35:56.494Z,15.24
2023-05-24T16:38:24.830Z,15.20
2023-05-24T16:40:52.216Z,15.08
2023-05-24T16:43:18.745Z,14.89
2023-05-24T16:45:46.057Z,14.95
2023-05-24T16:48:13.081Z,14.86
2023-05-24T16:50:40.503Z,14.91
2023-05-24T16:53:07.152Z,14.86
2023-05-24T16:55:33.620Z,14.96
2023-05-24T16:58:00.313Z,14.89
2023-05-24T17:00:26.885Z,14.85
2023-05-24T17:02:54.598Z,14.92
2023-05-24T17:05:21.336Z,14.77
2023-05-24T17:07:47.965Z,14.77
2023-05-24T17:10:14.466Z,14.76
2023-05-24T17:12:41.325Z,14.64
2023-05-24T17:15:08.381Z,14.61
2023-05-24T17:17:34.969Z,14.56
2023-05-24T17:20:01.723Z,14.57
2023-05-24T17:22:28.359Z,14.54
2023-05-24T17:24:54.951Z,14.47
2023-05-24T17:27:22.609Z,14.42
2023-05-24T17:29:49.453Z,14.29
2023-05-24T17:32:16.269Z,14.30
2023-05-24T17:34:42.772Z,14.15
2023-05-24T17:37:09.267Z,14.32
2023-05-24T17:39:35.759Z,14.25
2023-05-24T17:42:02.908Z,14.33
2023-05-24T17:44:29.539Z,14.52
2023-05-24T17:46:58.166Z,14.46
2023-05-24T17:49:24.656Z,14.32
2023-05-24T17:51:51.263Z,14.38
2023-05-24T17:54:17.829Z,14.33
2023-05-24T17:56:44.315Z,14.22
2023-05-24T17:59:11.136Z,14.27
2023-05-24T18:01:37.954Z,14.29
2023-05-24T18:04:06.890Z,14.19
2023-05-24T18:06:35.002Z,14.08
2023-05-24T18:09:01.508Z,14.20
2023-05-24T18:11:28.506Z,14.21
2023-05-24T18:13:55.031Z,14.15
2023-05-24T18:16:21.580Z,14.13
2023-05-24T18:18:48.087Z,13.90
2023-05-24T18:21:14.887Z,13.89
2023-05-24T18:23:42.426Z,13.83
2023-05-24T18:26:10.996Z,13.71
2023-05-24T18:28:38.387Z,13.70
2023-05-24T18:31:08.465Z,13.61
2023-05-24T18:33:35.291Z,13.41
2023-05-24T18:36:04.476Z,13.48
2023-05-24T18:38:33.693Z,13.36
2023-05-24T18:41:00.506Z,13.34
2023-05-24T18:43:27.038Z,13.33
2023-05-24T18:45:53.739Z,13.30
2023-05-24T18:48:21.638Z,13.32
2023-05-24T18:50:49.879Z,13.31
2023-05-24T18:53:16.427Z,13.37
2023-05-24T18:55:43.396Z,13.33
2023-05-24T18:58:10.166Z,13.29
2023-05-24T19:00:36.678Z,13.16
2023-05-24T19:03:03.364Z,13.19
2023-05-24T19:05:29.914Z,13.14
2023-05-24T19:07:57.518Z,13.06
2023-05-24T19:10:24.062Z,13.07
2023-05-24T19:12:50.614Z,12.93
2023-05-24T19:15:17.253Z,12.87
2023-05-24T19:17:43.866Z,12.78
2023-05-24T19:20:11.565Z,12.71
2023-05-24T19:22:38.210Z,12.66
2023-05-24T19:25:05.076Z,12.66
2023-05-24T19:27:31.600Z,12.44
2023-05-24T19:30:00.008Z,12.49
2023-05-24T19:32:26.699Z,12.53
2023-05-24T19:34:53.258Z,12.40
2023-05-24T19:37:20.822Z,12.42
2023-05-24T19:39:47.448Z,12.37
2023-05-24T19:42:14.216Z,12.30
2023-05-24T19:44:40.870Z,12.40
2023-05-24T19:47:07.371Z,12.29
2023-05-24T19:49:34.101Z,12.31
2023-05-24T19:52:00.599Z,12.27
2023-05-24T19:54:27.105Z,12.19
2023-05-24T19:56:55.820Z,12.16
2023-05-24T19:59:22.427Z,12.09
2023-05-24T20:01:49.045Z,12.03
2023-05-24T20:04:15.844Z,12.06
2023-05-24T20:06:42.653Z,12.01
2023-05-24T20:09:09.431Z,11.80
2023-05-24T20:11:36.051Z,11.85
2023-05-24T20:14:02.964Z,11.94
2023-05-24T20:16:30.743Z,11.94
2023-05-24T20:18:57.314Z,11.93
2023-05-24T20:21:23.844Z,11.91
2023-05-24T20:23:57.277Z,11.84
2023-05-24T20:26:24.436Z,11.85
2023-05-24T20:28:51.977Z,11.75
2023-05-24T20:31:18.673Z,11.78
2023-05-24T20:33:45.358Z,11.78
2023-05-24T20:36:11.876Z,11.69
2023-05-24T20:38:39.586Z,11.67
2023-05-24T20:41:06.233Z,11.68
2023-05-24T20:43:32.807Z,11.66
2023-05-24T20:46:00.019Z,11.61
2023-05-24T20:48:26.524Z,11.64
2023-05-24T20:50:53.055Z,11.65
2023-05-24T20:53:19.555Z,11.60
2023-05-24T20:55:46.248Z,11.63
2023-05-24T20:58:13.734Z,11.53
2023-05-24T21:00:41.048Z,11.61
2023-05-24T21:03:08.623Z,11.57
2023-05-24T21:05:36.510Z,11.54
2023-05-24T21:08:03.752Z,11.52
2023-05-24T21:10:30.502Z,11.47
2023-05-24T21:12:57.016Z,11.50
2023-05-24T21:15:24.943Z,11.45
2023-05-24T21:17:51.515Z,11.31
2023-05-24T21:20:18.095Z,11.36
2023-05-24T21:22:46.067Z,11.37
2023-05-24T21:25:12.708Z,11.36
2023-05-24T21:27:39.507Z,11.42
2023-05-24T21:30:06.882Z,11.33
2023-05-24T21:32:33.506Z,11.34
2023-05-24T21:35:00.122Z,11.30
2023-05-24T21:37:26.709Z,11.28
2023-05-24T21:39:53.219Z,11.19
2023-05-24T21:42:19.694Z,11.23
2023-05-24T21:44:46.189Z,11.18
2023-05-24T21:47:12.706Z,11.12
2023-05-24T21:49:39.471Z,11.13
2023-05-24T21:52:05.976Z,11.18
2023-05-24T21:54:32.533Z,11.14
2023-05-24T21:56:59.004Z,11.13
2023-05-24T21:59:25.480Z,11.00
2023-05-24T22:01:52.029Z,11.13
2023-05-24T22:04:56.483Z,11.22
2023-05-24T22:07:41.611Z,11.19
2023-05-24T22:10:08.496Z,11.15
2023-05-24T22:12:35.333Z,11.06
2023-05-24T22:15:02.238Z,11.15
2023-05-24T22:17:33.061Z,11.08
2023-05-24T22:20:05.525Z,11.12
2023-05-24T22:22:32.164Z,11.08
2023-05-24T22:25:02.082Z,11.12
2023-05-24T22:27:29.634Z,11.10
2023-05-24T22:29:56.248Z,11.14
2023-05-24T22:32:22.847Z,11.09
2023-05-24T22:34:49.406Z,11.12
2023-05-24T22:37:16.860Z,11.13
2023-05-24T22:39:45.066Z,11.12
2023-05-24T22:42:11.727Z,11.12
2023-05-24T22:44:38.386Z,11.11
2023-05-24T22:47:05.017Z,11.06
2023-05-24T22:49:34.054Z,11.05
2023-05-24T22:52:01.003Z,11.05
2023-05-24T22:54:27.590Z,11.04
2023-05-24T22:56:54.133Z,11.01
2023-05-24T22:59:21.005Z,10.97
2023-05-24T23:01:47.585Z,11.00
2023-05-24T23:04:20.326Z,10.99
2023-05-24T23:06:48.854Z,10.96
2023-05-24T23:09:15.434Z,11.02
2023-05-24T23:11:42.905Z,11.06
2023-05-24T23:14:11.224Z,11.09
2023-05-24T23:16:40.208Z,11.07
2023-05-24T23:19:07.017Z,11.10
2023-05-24T23:21:33.929Z,11.06
2023-05-24T23:24:02.104Z,11.02
2023-05-24T23:26:28.858Z,10.99
2023-05-24T23:28:55.484Z,11.02
2023-05-24T23:31:22.398Z,11.04
2023-05-24T23:33:48.999Z,11.03
2023-05-24T23:36:15.650Z,10.97
2023-05-24T23:38:42.138Z,11.09
2023-05-24T23:41:08.677Z,11.00
2023-05-24T23:43:35.340Z,10.94
2023-05-24T23:46:01.871Z,11.04
2023-05-24T23:48:28.408Z,11.02
2023-05-24T23:50:55.004Z,10.94
2023-05-24T23:53:21.794Z,11.05
2023-05-24T23:55:48.325Z,11.03
2023-05-24T23:58:14.871Z,10.97
